sensor_id;sensor_type;location;lat;lon;timestamp;P1;durP1;ratioP1;P2;durP2;ratioP2
55270;SDS011;41132;47.162;9.470;2022-11-15T00:33:54;2.28;;;1.17;;
55270;SDS011;41132;47.162;9.470;2022-11-15T00:36:20;2.35;;;1.13;;
55270;SDS011;41132;47.162;9.470;2022-11-15T00:41:20;2.33;;;1.17;;
55270;SDS011;41132;47.162;9.470;2022-11-15T00:46:20;2.25;;;1.10;;
55270;SDS011;41132;47.162;9.470;2022-11-15T00:48:46;2.25;;;1.10;;
55270;SDS011;41132;47.162;9.470;2022-11-15T00:53:46;1.95;;;1.08;;
55270;SDS011;41132;47.162;9.470;2022-11-15T01:14:18;2.42;;;1.23;;
55270;SDS011;41132;47.162;9.470;2022-11-15T01:42:35;2.47;;;1.10;;
55270;SDS011;41132;47.162;9.470;2022-11-15T01:45:00;2.40;;;1.20;;
55270;SDS011;41132;47.162;9.470;2022-11-15T01:50:05;1.70;;;0.98;;
55270;SDS011;41132;47.162;9.470;2022-11-15T01:52:37;2.92;;;1.23;;
55270;SDS011;41132;47.162;9.470;2022-11-15T01:55:08;2.72;;;1.25;;
55270;SDS011;41132;47.162;9.470;2022-11-15T01:57:38;2.73;;;1.30;;
55270;SDS011;41132;47.162;9.470;2022-11-15T02:00:06;1.55;;;0.93;;
55270;SDS011;41132;47.162;9.470;2022-11-15T02:02:32;3.13;;;1.15;;
55270;SDS011;41132;47.162;9.470;2022-11-15T02:07:34;2.00;;;1.08;;
55270;SDS011;41132;47.162;9.470;2022-11-15T02:51:42;2.78;;;1.30;;
55270;SDS011;41132;47.162;9.470;2022-11-15T02:54:11;2.22;;;1.02;;
55270;SDS011;41132;47.162;9.470;2022-11-15T02:56:39;1.38;;;1.00;;
55270;SDS011;41132;47.162;9.470;2022-11-15T03:49:59;2.33;;;1.20;;
55270;SDS011;41132;47.162;9.470;2022-11-15T04:00:15;2.40;;;1.17;;
55270;SDS011;41132;47.162;9.470;2022-11-15T04:02:41;2.15;;;1.10;;
55270;SDS011;41132;47.162;9.470;2022-11-15T04:05:06;2.30;;;1.23;;
55270;SDS011;41132;47.162;9.470;2022-11-15T04:07:33;2.25;;;1.08;;
55270;SDS011;41132;47.162;9.470;2022-11-15T04:09:58;2.33;;;1.10;;
55270;SDS011;41132;47.162;9.470;2022-11-15T04:12:34;2.88;;;1.33;;
55270;SDS011;41132;47.162;9.470;2022-11-15T04:25:31;2.80;;;1.33;;
55270;SDS011;41132;47.162;9.470;2022-11-15T04:27:57;2.85;;;1.13;;
55270;SDS011;41132;47.162;9.470;2022-11-15T04:49:54;1.95;;;1.10;;
55270;SDS011;41132;47.162;9.470;2022-11-15T04:52:20;3.55;;;1.90;;
55270;SDS011;41132;47.162;9.470;2022-11-15T04:57:20;2.53;;;1.20;;
55270;SDS011;41132;47.162;9.470;2022-11-15T04:59:46;2.25;;;1.10;;
55270;SDS011;41132;47.162;9.470;2022-11-15T05:02:11;1.90;;;1.00;;
55270;SDS011;41132;47.162;9.470;2022-11-15T05:09:47;2.47;;;1.10;;
55270;SDS011;41132;47.162;9.470;2022-11-15T05:28:23;2.00;;;1.10;;
55270;SDS011;41132;47.162;9.470;2022-11-15T06:43:14;8.07;;;2.92;;
55270;SDS011;41132;47.162;9.470;2022-11-15T06:45:49;6.65;;;2.50;;
55270;SDS011;41132;47.162;9.470;2022-11-15T06:48:14;5.82;;;2.05;;
55270;SDS011;41132;47.162;9.470;2022-11-15T06:50:39;6.60;;;2.95;;
55270;SDS011;41132;47.162;9.470;2022-11-15T07:29:44;8.85;;;3.58;;
55270;SDS011;41132;47.162;9.470;2022-11-15T07:32:10;7.65;;;2.83;;
55270;SDS011;41132;47.162;9.470;2022-11-15T07:34:35;6.13;;;2.90;;
55270;SDS011;41132;47.162;9.470;2022-11-15T07:37:00;5.68;;;2.20;;
55270;SDS011;41132;47.162;9.470;2022-11-15T07:39:26;6.68;;;3.03;;
55270;SDS011;41132;47.162;9.470;2022-11-15T07:41:51;7.15;;;2.50;;
55270;SDS011;41132;47.162;9.470;2022-11-15T07:44:36;6.13;;;2.65;;
55270;SDS011;41132;47.162;9.470;2022-11-15T07:47:02;5.93;;;2.67;;
55270;SDS011;41132;47.162;9.470;2022-11-15T07:49:27;9.77;;;2.58;;
55270;SDS011;41132;47.162;9.470;2022-11-15T07:51:52;6.63;;;2.83;;
55270;SDS011;41132;47.162;9.470;2022-11-15T07:54:17;7.13;;;2.58;;
55270;SDS011;41132;47.162;9.470;2022-11-15T07:56:43;6.72;;;2.47;;
55270;SDS011;41132;47.162;9.470;2022-11-15T07:59:08;5.38;;;2.20;;
55270;SDS011;41132;47.162;9.470;2022-11-15T08:01:33;5.25;;;2.20;;
55270;SDS011;41132;47.162;9.470;2022-11-15T08:03:59;5.00;;;2.20;;
55270;SDS011;41132;47.162;9.470;2022-11-15T08:06:24;5.18;;;2.45;;
55270;SDS011;41132;47.162;9.470;2022-11-15T08:08:49;5.88;;;2.20;;
55270;SDS011;41132;47.162;9.470;2022-11-15T08:11:15;6.05;;;2.22;;
55270;SDS011;41132;47.162;9.470;2022-11-15T08:13:40;5.60;;;2.45;;
55270;SDS011;41132;47.162;9.470;2022-11-15T08:16:05;5.35;;;2.30;;
55270;SDS011;41132;47.162;9.470;2022-11-15T08:21:08;6.32;;;1.95;;
55270;SDS011;41132;47.162;9.470;2022-11-15T08:23:34;4.57;;;2.00;;
55270;SDS011;41132;47.162;9.470;2022-11-15T08:26:01;5.22;;;2.00;;
55270;SDS011;41132;47.162;9.470;2022-11-15T08:28:28;5.75;;;2.70;;
55270;SDS011;41132;47.162;9.470;2022-11-15T08:30:54;7.32;;;2.22;;
55270;SDS011;41132;47.162;9.470;2022-11-15T08:33:19;7.53;;;2.70;;
55270;SDS011;41132;47.162;9.470;2022-11-15T08:35:44;6.22;;;2.40;;
55270;SDS011;41132;47.162;9.470;2022-11-15T08:38:10;5.40;;;2.30;;
55270;SDS011;41132;47.162;9.470;2022-11-15T08:40:36;4.88;;;2.08;;
55270;SDS011;41132;47.162;9.470;2022-11-15T08:43:02;5.25;;;2.03;;
55270;SDS011;41132;47.162;9.470;2022-11-15T08:45:28;5.72;;;2.42;;
55270;SDS011;41132;47.162;9.470;2022-11-15T08:47:54;4.50;;;2.30;;
55270;SDS011;41132;47.162;9.470;2022-11-15T08:50:20;5.95;;;1.90;;
55270;SDS011;41132;47.162;9.470;2022-11-15T08:52:45;5.70;;;1.90;;
55270;SDS011;41132;47.162;9.470;2022-11-15T08:55:10;4.25;;;1.95;;
55270;SDS011;41132;47.162;9.470;2022-11-15T08:57:36;5.13;;;2.13;;
55270;SDS011;41132;47.162;9.470;2022-11-15T09:00:01;6.88;;;2.13;;
55270;SDS011;41132;47.162;9.470;2022-11-15T09:02:27;5.50;;;2.30;;
55270;SDS011;41132;47.162;9.470;2022-11-15T09:04:53;4.55;;;2.00;;
55270;SDS011;41132;47.162;9.470;2022-11-15T09:07:18;5.65;;;2.17;;
55270;SDS011;41132;47.162;9.470;2022-11-15T09:09:43;4.72;;;2.08;;
55270;SDS011;41132;47.162;9.470;2022-11-15T09:12:09;5.13;;;2.05;;
55270;SDS011;41132;47.162;9.470;2022-11-15T09:14:34;3.55;;;1.80;;
55270;SDS011;41132;47.162;9.470;2022-11-15T09:16:59;5.35;;;2.20;;
55270;SDS011;41132;47.162;9.470;2022-11-15T09:19:26;6.85;;;1.90;;
55270;SDS011;41132;47.162;9.470;2022-11-15T09:21:51;6.65;;;2.10;;
55270;SDS011;41132;47.162;9.470;2022-11-15T09:24:17;5.30;;;2.22;;
55270;SDS011;41132;47.162;9.470;2022-11-15T09:26:42;8.55;;;3.47;;
55270;SDS011;41132;47.162;9.470;2022-11-15T09:29:08;4.47;;;1.77;;
55270;SDS011;41132;47.162;9.470;2022-11-15T09:31:33;5.40;;;1.67;;
55270;SDS011;41132;47.162;9.470;2022-11-15T09:33:59;3.88;;;1.88;;
55270;SDS011;41132;47.162;9.470;2022-11-15T09:36:25;5.75;;;2.38;;
55270;SDS011;41132;47.162;9.470;2022-11-15T09:38:50;5.40;;;1.95;;
55270;SDS011;41132;47.162;9.470;2022-11-15T09:41:21;3.78;;;1.65;;
55270;SDS011;41132;47.162;9.470;2022-11-15T09:44:29;5.47;;;2.35;;
55270;SDS011;41132;47.162;9.470;2022-11-15T09:47:28;6.28;;;2.30;;
55270;SDS011;41132;47.162;9.470;2022-11-15T09:50:12;4.10;;;1.73;;
55270;SDS011;41132;47.162;9.470;2022-11-15T09:52:42;6.65;;;2.30;;
55270;SDS011;41132;47.162;9.470;2022-11-15T09:55:13;5.20;;;2.00;;
55270;SDS011;41132;47.162;9.470;2022-11-15T09:58:10;4.68;;;1.73;;
55270;SDS011;41132;47.162;9.470;2022-11-15T10:00:38;3.08;;;1.50;;
55270;SDS011;41132;47.162;9.470;2022-11-15T10:03:09;3.72;;;1.63;;
55270;SDS011;41132;47.162;9.470;2022-11-15T10:05:37;4.65;;;1.65;;
55270;SDS011;41132;47.162;9.470;2022-11-15T10:08:10;5.25;;;1.80;;
55270;SDS011;41132;47.162;9.470;2022-11-15T10:13:20;5.05;;;1.90;;
55270;SDS011;41132;47.162;9.470;2022-11-15T10:15:48;5.68;;;1.75;;
55270;SDS011;41132;47.162;9.470;2022-11-15T10:23:31;4.93;;;2.20;;
55270;SDS011;41132;47.162;9.470;2022-11-15T10:25:58;6.68;;;2.38;;
55270;SDS011;41132;47.162;9.470;2022-11-15T10:49:21;4.68;;;2.13;;
55270;SDS011;41132;47.162;9.470;2022-11-15T11:40:51;5.90;;;2.60;;
55270;SDS011;41132;47.162;9.470;2022-11-15T11:43:37;6.07;;;2.90;;
55270;SDS011;41132;47.162;9.470;2022-11-15T11:46:22;5.88;;;2.80;;
55270;SDS011;41132;47.162;9.470;2022-11-15T11:49:06;5.00;;;2.35;;
55270;SDS011;41132;47.162;9.470;2022-11-15T11:51:40;6.85;;;2.70;;
55270;SDS011;41132;47.162;9.470;2022-11-15T11:54:55;13.30;;;6.82;;
55270;SDS011;41132;47.162;9.470;2022-11-15T11:57:17;6.30;;;2.63;;
55270;SDS011;41132;47.162;9.470;2022-11-15T11:59:53;6.13;;;2.55;;
55270;SDS011;41132;47.162;9.470;2022-11-15T12:02:30;8.68;;;2.75;;
55270;SDS011;41132;47.162;9.470;2022-11-15T12:05:21;5.57;;;2.42;;
55270;SDS011;41132;47.162;9.470;2022-11-15T12:07:53;8.15;;;3.05;;
55270;SDS011;41132;47.162;9.470;2022-11-15T12:10:24;5.68;;;2.78;;
55270;SDS011;41132;47.162;9.470;2022-11-15T12:12:58;6.85;;;2.60;;
55270;SDS011;41132;47.162;9.470;2022-11-15T12:15:30;7.68;;;2.95;;
55270;SDS011;41132;47.162;9.470;2022-11-15T12:18:00;8.10;;;2.58;;
55270;SDS011;41132;47.162;9.470;2022-11-15T12:20:28;5.88;;;3.00;;
55270;SDS011;41132;47.162;9.470;2022-11-15T12:22:59;6.07;;;2.97;;
55270;SDS011;41132;47.162;9.470;2022-11-15T12:25:30;5.85;;;2.70;;
55270;SDS011;41132;47.162;9.470;2022-11-15T12:28:12;4.80;;;2.22;;
55270;SDS011;41132;47.162;9.470;2022-11-15T12:33:34;7.50;;;2.72;;
55270;SDS011;41132;47.162;9.470;2022-11-15T12:36:03;4.97;;;2.60;;
55270;SDS011;41132;47.162;9.470;2022-11-15T12:43:55;9.38;;;3.05;;
55270;SDS011;41132;47.162;9.470;2022-11-15T12:59:47;5.68;;;2.70;;
55270;SDS011;41132;47.162;9.470;2022-11-15T13:28:18;11.43;;;3.75;;
55270;SDS011;41132;47.162;9.470;2022-11-15T13:31:15;6.38;;;3.10;;
55270;SDS011;41132;47.162;9.470;2022-11-15T13:36:53;8.73;;;3.47;;
55270;SDS011;41132;47.162;9.470;2022-11-15T13:39:26;7.93;;;2.72;;
55270;SDS011;41132;47.162;9.470;2022-11-15T13:41:54;7.35;;;3.20;;
55270;SDS011;41132;47.162;9.470;2022-11-15T13:44:21;8.90;;;3.17;;
55270;SDS011;41132;47.162;9.470;2022-11-15T13:49:46;6.07;;;3.15;;
55270;SDS011;41132;47.162;9.470;2022-11-15T13:52:13;5.78;;;2.95;;
55270;SDS011;41132;47.162;9.470;2022-11-15T13:54:43;8.77;;;4.57;;
55270;SDS011;41132;47.162;9.470;2022-11-15T13:59:51;7.97;;;3.97;;
55270;SDS011;41132;47.162;9.470;2022-11-15T14:02:26;7.05;;;4.47;;
55270;SDS011;41132;47.162;9.470;2022-11-15T14:10:34;6.00;;;3.35;;
55270;SDS011;41132;47.162;9.470;2022-11-15T14:15:37;5.88;;;3.42;;
55270;SDS011;41132;47.162;9.470;2022-11-15T14:20:39;7.78;;;3.35;;
55270;SDS011;41132;47.162;9.470;2022-11-15T14:23:19;6.63;;;3.67;;
55270;SDS011;41132;47.162;9.470;2022-11-15T14:25:54;5.97;;;3.28;;
55270;SDS011;41132;47.162;9.470;2022-11-15T14:30:53;7.82;;;3.65;;
55270;SDS011;41132;47.162;9.470;2022-11-15T14:33:22;8.73;;;3.50;;
55270;SDS011;41132;47.162;9.470;2022-11-15T14:35:50;7.13;;;4.03;;
55270;SDS011;41132;47.162;9.470;2022-11-15T14:38:17;7.03;;;3.75;;
55270;SDS011;41132;47.162;9.470;2022-11-15T14:40:43;6.53;;;3.45;;
55270;SDS011;41132;47.162;9.470;2022-11-15T14:43:09;8.02;;;3.90;;
55270;SDS011;41132;47.162;9.470;2022-11-15T14:45:36;6.60;;;3.15;;
55270;SDS011;41132;47.162;9.470;2022-11-15T14:48:02;7.88;;;3.75;;
55270;SDS011;41132;47.162;9.470;2022-11-15T14:50:27;7.70;;;3.55;;
55270;SDS011;41132;47.162;9.470;2022-11-15T14:52:53;7.45;;;3.40;;
55270;SDS011;41132;47.162;9.470;2022-11-15T14:55:24;6.28;;;3.03;;
55270;SDS011;41132;47.162;9.470;2022-11-15T15:00:17;11.35;;;3.38;;
55270;SDS011;41132;47.162;9.470;2022-11-15T15:02:44;6.18;;;3.47;;
55270;SDS011;41132;47.162;9.470;2022-11-15T15:05:14;7.15;;;3.60;;
55270;SDS011;41132;47.162;9.470;2022-11-15T15:07:56;7.65;;;3.60;;
55270;SDS011;41132;47.162;9.470;2022-11-15T15:10:22;8.18;;;3.67;;
55270;SDS011;41132;47.162;9.470;2022-11-15T15:12:48;7.78;;;3.85;;
55270;SDS011;41132;47.162;9.470;2022-11-15T15:15:22;6.88;;;3.67;;
55270;SDS011;41132;47.162;9.470;2022-11-15T15:17:50;6.47;;;3.65;;
55270;SDS011;41132;47.162;9.470;2022-11-15T15:20:15;10.95;;;3.90;;
55270;SDS011;41132;47.162;9.470;2022-11-15T15:22:41;7.25;;;3.30;;
55270;SDS011;41132;47.162;9.470;2022-11-15T15:25:23;11.00;;;3.67;;
55270;SDS011;41132;47.162;9.470;2022-11-15T15:27:52;7.15;;;3.65;;
55270;SDS011;41132;47.162;9.470;2022-11-15T15:30:19;7.68;;;4.45;;
55270;SDS011;41132;47.162;9.470;2022-11-15T15:35:19;9.63;;;4.80;;
55270;SDS011;41132;47.162;9.470;2022-11-15T15:37:45;8.85;;;4.38;;
55270;SDS011;41132;47.162;9.470;2022-11-15T16:00:53;10.80;;;4.00;;
55270;SDS011;41132;47.162;9.470;2022-11-15T16:05:54;14.15;;;3.83;;
55270;SDS011;41132;47.162;9.470;2022-11-15T16:13:36;7.75;;;3.17;;
55270;SDS011;41132;47.162;9.470;2022-11-15T16:16:01;8.85;;;3.15;;
55270;SDS011;41132;47.162;9.470;2022-11-15T16:18:26;10.35;;;4.00;;
55270;SDS011;41132;47.162;9.470;2022-11-15T16:20:51;8.63;;;4.10;;
55270;SDS011;41132;47.162;9.470;2022-11-15T16:23:21;11.88;;;3.78;;
55270;SDS011;41132;47.162;9.470;2022-11-15T16:25:49;9.38;;;3.85;;
55270;SDS011;41132;47.162;9.470;2022-11-15T16:30:42;8.57;;;3.38;;
55270;SDS011;41132;47.162;9.470;2022-11-15T16:33:08;6.90;;;3.60;;
55270;SDS011;41132;47.162;9.470;2022-11-15T16:35:34;6.40;;;3.25;;
55270;SDS011;41132;47.162;9.470;2022-11-15T16:38:00;6.88;;;2.75;;
55270;SDS011;41132;47.162;9.470;2022-11-15T16:40:26;6.50;;;3.15;;
55270;SDS011;41132;47.162;9.470;2022-11-15T16:42:57;6.00;;;3.22;;
55270;SDS011;41132;47.162;9.470;2022-11-15T16:45:23;6.85;;;3.70;;
55270;SDS011;41132;47.162;9.470;2022-11-15T16:47:50;8.23;;;3.38;;
55270;SDS011;41132;47.162;9.470;2022-11-15T16:50:18;8.50;;;3.60;;
55270;SDS011;41132;47.162;9.470;2022-11-15T16:52:53;8.45;;;3.03;;
55270;SDS011;41132;47.162;9.470;2022-11-15T16:55:20;9.30;;;4.22;;
55270;SDS011;41132;47.162;9.470;2022-11-15T16:57:47;14.77;;;7.28;;
55270;SDS011;41132;47.162;9.470;2022-11-15T17:00:13;9.55;;;5.75;;
55270;SDS011;41132;47.162;9.470;2022-11-15T17:02:41;11.38;;;6.20;;
55270;SDS011;41132;47.162;9.470;2022-11-15T17:05:14;12.07;;;6.00;;
55270;SDS011;41132;47.162;9.470;2022-11-15T17:07:41;13.10;;;6.15;;
55270;SDS011;41132;47.162;9.470;2022-11-15T17:10:08;7.68;;;4.15;;
55270;SDS011;41132;47.162;9.470;2022-11-15T17:12:35;6.50;;;3.30;;
55270;SDS011;41132;47.162;9.470;2022-11-15T17:15:01;8.20;;;3.63;;
55270;SDS011;41132;47.162;9.470;2022-11-15T17:17:28;10.88;;;3.58;;
55270;SDS011;41132;47.162;9.470;2022-11-15T17:19:54;8.50;;;4.68;;
55270;SDS011;41132;47.162;9.470;2022-11-15T17:22:19;7.97;;;4.80;;
55270;SDS011;41132;47.162;9.470;2022-11-15T17:24:45;8.90;;;5.40;;
55270;SDS011;41132;47.162;9.470;2022-11-15T17:27:10;9.45;;;5.20;;
55270;SDS011;41132;47.162;9.470;2022-11-15T17:29:35;10.30;;;5.47;;
55270;SDS011;41132;47.162;9.470;2022-11-15T17:32:01;8.02;;;5.30;;
55270;SDS011;41132;47.162;9.470;2022-11-15T17:34:26;7.50;;;4.70;;
55270;SDS011;41132;47.162;9.470;2022-11-15T17:36:52;10.25;;;4.53;;
55270;SDS011;41132;47.162;9.470;2022-11-15T17:39:17;9.43;;;4.88;;
55270;SDS011;41132;47.162;9.470;2022-11-15T17:41:44;9.27;;;4.90;;
55270;SDS011;41132;47.162;9.470;2022-11-15T17:44:10;6.00;;;3.30;;
55270;SDS011;41132;47.162;9.470;2022-11-15T17:46:35;6.65;;;3.95;;
55270;SDS011;41132;47.162;9.470;2022-11-15T17:49:01;7.32;;;3.80;;
55270;SDS011;41132;47.162;9.470;2022-11-15T17:51:26;7.97;;;4.55;;
55270;SDS011;41132;47.162;9.470;2022-11-15T17:53:51;6.70;;;3.97;;
55270;SDS011;41132;47.162;9.470;2022-11-15T17:56:20;7.25;;;4.13;;
55270;SDS011;41132;47.162;9.470;2022-11-15T17:58:48;7.30;;;3.80;;
55270;SDS011;41132;47.162;9.470;2022-11-15T18:01:22;10.15;;;4.32;;
55270;SDS011;41132;47.162;9.470;2022-11-15T18:03:50;7.30;;;3.75;;
55270;SDS011;41132;47.162;9.470;2022-11-15T18:06:16;6.78;;;3.80;;
55270;SDS011;41132;47.162;9.470;2022-11-15T18:08:43;9.18;;;5.20;;
55270;SDS011;41132;47.162;9.470;2022-11-15T18:13:37;12.18;;;7.32;;
55270;SDS011;41132;47.162;9.470;2022-11-15T18:16:05;11.77;;;5.47;;
55270;SDS011;41132;47.162;9.470;2022-11-15T18:18:34;11.73;;;7.18;;
55270;SDS011;41132;47.162;9.470;2022-11-15T18:21:00;13.18;;;7.07;;
55270;SDS011;41132;47.162;9.470;2022-11-15T18:23:52;10.00;;;6.85;;
55270;SDS011;41132;47.162;9.470;2022-11-15T18:26:19;9.45;;;5.53;;
55270;SDS011;41132;47.162;9.470;2022-11-15T18:28:45;13.07;;;6.32;;
55270;SDS011;41132;47.162;9.470;2022-11-15T18:33:38;10.80;;;6.20;;
55270;SDS011;41132;47.162;9.470;2022-11-15T18:36:04;9.30;;;5.80;;
55270;SDS011;41132;47.162;9.470;2022-11-15T18:38:31;12.40;;;6.53;;
55270;SDS011;41132;47.162;9.470;2022-11-15T18:41:04;11.68;;;6.10;;
55270;SDS011;41132;47.162;9.470;2022-11-15T18:43:29;10.05;;;6.15;;
55270;SDS011;41132;47.162;9.470;2022-11-15T18:45:55;9.18;;;6.18;;
55270;SDS011;41132;47.162;9.470;2022-11-15T18:48:28;10.77;;;6.60;;
55270;SDS011;41132;47.162;9.470;2022-11-15T18:50:58;10.32;;;6.22;;
55270;SDS011;41132;47.162;9.470;2022-11-15T18:53:25;10.98;;;6.80;;
55270;SDS011;41132;47.162;9.470;2022-11-15T18:55:50;14.00;;;7.03;;
55270;SDS011;41132;47.162;9.470;2022-11-15T18:58:16;11.15;;;6.40;;
55270;SDS011;41132;47.162;9.470;2022-11-15T19:00:41;10.95;;;6.85;;
55270;SDS011;41132;47.162;9.470;2022-11-15T19:03:06;11.95;;;6.53;;
55270;SDS011;41132;47.162;9.470;2022-11-15T19:05:31;12.60;;;7.55;;
55270;SDS011;41132;47.162;9.470;2022-11-15T19:07:59;11.93;;;6.38;;
55270;SDS011;41132;47.162;9.470;2022-11-15T19:10:26;10.98;;;6.60;;
55270;SDS011;41132;47.162;9.470;2022-11-15T19:17:57;10.95;;;6.40;;
55270;SDS011;41132;47.162;9.470;2022-11-15T19:20:22;9.32;;;5.90;;
55270;SDS011;41132;47.162;9.470;2022-11-15T19:25:25;10.70;;;6.18;;
55270;SDS011;41132;47.162;9.470;2022-11-15T19:38:13;10.13;;;6.15;;
55270;SDS011;41132;47.162;9.470;2022-11-15T19:40:38;9.50;;;5.82;;
55270;SDS011;41132;47.162;9.470;2022-11-15T19:45:38;8.60;;;5.65;;
55270;SDS011;41132;47.162;9.470;2022-11-15T19:48:03;9.65;;;5.40;;
55270;SDS011;41132;47.162;9.470;2022-11-15T19:53:04;9.60;;;6.18;;
55270;SDS011;41132;47.162;9.470;2022-11-15T19:58:05;11.75;;;6.30;;
55270;SDS011;41132;47.162;9.470;2022-11-15T20:00:30;9.65;;;5.50;;
55270;SDS011;41132;47.162;9.470;2022-11-15T20:02:55;13.23;;;6.55;;
55270;SDS011;41132;47.162;9.470;2022-11-15T20:05:21;10.40;;;5.53;;
55270;SDS011;41132;47.162;9.470;2022-11-15T20:07:47;9.57;;;5.40;;
55270;SDS011;41132;47.162;9.470;2022-11-15T20:10:12;11.60;;;7.63;;
55270;SDS011;41132;47.162;9.470;2022-11-15T20:12:38;12.10;;;6.97;;
55270;SDS011;41132;47.162;9.470;2022-11-15T20:15:03;11.20;;;6.88;;
55270;SDS011;41132;47.162;9.470;2022-11-15T20:17:29;11.98;;;7.68;;
55270;SDS011;41132;47.162;9.470;2022-11-15T20:19:55;13.10;;;8.63;;
55270;SDS011;41132;47.162;9.470;2022-11-15T20:22:20;12.27;;;8.15;;
55270;SDS011;41132;47.162;9.470;2022-11-15T20:24:45;15.00;;;6.72;;
55270;SDS011;41132;47.162;9.470;2022-11-15T20:27:11;12.52;;;5.55;;
55270;SDS011;41132;47.162;9.470;2022-11-15T20:29:36;8.57;;;4.75;;
55270;SDS011;41132;47.162;9.470;2022-11-15T20:32:01;9.55;;;4.72;;
55270;SDS011;41132;47.162;9.470;2022-11-15T20:34:27;9.30;;;4.30;;
55270;SDS011;41132;47.162;9.470;2022-11-15T20:36:52;8.77;;;4.68;;
55270;SDS011;41132;47.162;9.470;2022-11-15T20:39:18;7.88;;;4.65;;
55270;SDS011;41132;47.162;9.470;2022-11-15T20:41:43;9.23;;;4.00;;
55270;SDS011;41132;47.162;9.470;2022-11-15T20:44:08;6.35;;;3.78;;
55270;SDS011;41132;47.162;9.470;2022-11-15T20:46:34;6.75;;;3.50;;
55270;SDS011;41132;47.162;9.470;2022-11-15T20:48:59;7.95;;;4.32;;
55270;SDS011;41132;47.162;9.470;2022-11-15T20:51:24;9.68;;;4.43;;
55270;SDS011;41132;47.162;9.470;2022-11-15T20:53:50;7.78;;;4.47;;
55270;SDS011;41132;47.162;9.470;2022-11-15T20:56:17;7.30;;;3.97;;
55270;SDS011;41132;47.162;9.470;2022-11-15T20:58:44;6.85;;;4.05;;
55270;SDS011;41132;47.162;9.470;2022-11-15T21:01:10;6.93;;;3.85;;
55270;SDS011;41132;47.162;9.470;2022-11-15T21:03:38;7.72;;;4.43;;
55270;SDS011;41132;47.162;9.470;2022-11-15T21:06:03;7.97;;;4.20;;
55270;SDS011;41132;47.162;9.470;2022-11-15T21:08:29;7.93;;;2.90;;
55270;SDS011;41132;47.162;9.470;2022-11-15T21:11:18;6.63;;;2.90;;
55270;SDS011;41132;47.162;9.470;2022-11-15T21:14:03;5.82;;;2.85;;
55270;SDS011;41132;47.162;9.470;2022-11-15T21:16:28;5.65;;;3.10;;
55270;SDS011;41132;47.162;9.470;2022-11-15T21:18:54;8.73;;;3.58;;
55270;SDS011;41132;47.162;9.470;2022-11-15T21:21:19;7.15;;;4.05;;
55270;SDS011;41132;47.162;9.470;2022-11-15T21:23:45;7.53;;;3.65;;
55270;SDS011;41132;47.162;9.470;2022-11-15T21:26:10;8.68;;;4.50;;
55270;SDS011;41132;47.162;9.470;2022-11-15T21:28:35;8.30;;;4.55;;
55270;SDS011;41132;47.162;9.470;2022-11-15T21:31:00;8.95;;;4.10;;
55270;SDS011;41132;47.162;9.470;2022-11-15T21:33:26;9.20;;;4.20;;
55270;SDS011;41132;47.162;9.470;2022-11-15T21:35:53;6.95;;;3.95;;
55270;SDS011;41132;47.162;9.470;2022-11-15T21:38:19;7.50;;;4.10;;
55270;SDS011;41132;47.162;9.470;2022-11-15T21:53:40;8.60;;;3.85;;
55270;SDS011;41132;47.162;9.470;2022-11-15T21:56:06;7.32;;;3.90;;
55270;SDS011;41132;47.162;9.470;2022-11-15T21:58:32;6.97;;;3.88;;
55270;SDS011;41132;47.162;9.470;2022-11-15T22:00:58;12.65;;;4.60;;
55270;SDS011;41132;47.162;9.470;2022-11-15T22:06:17;10.05;;;4.25;;
55270;SDS011;41132;47.162;9.470;2022-11-15T22:08:43;8.82;;;4.15;;
55270;SDS011;41132;47.162;9.470;2022-11-15T22:11:09;10.48;;;5.13;;
55270;SDS011;41132;47.162;9.470;2022-11-15T22:13:34;11.63;;;5.20;;
55270;SDS011;41132;47.162;9.470;2022-11-15T22:16:00;8.93;;;4.70;;
55270;SDS011;41132;47.162;9.470;2022-11-15T22:18:25;10.65;;;4.70;;
55270;SDS011;41132;47.162;9.470;2022-11-15T22:20:54;9.65;;;5.88;;
55270;SDS011;41132;47.162;9.470;2022-11-15T22:23:21;13.02;;;6.18;;
55270;SDS011;41132;47.162;9.470;2022-11-15T22:25:47;12.25;;;7.10;;
55270;SDS011;41132;47.162;9.470;2022-11-15T22:28:13;13.15;;;7.05;;
55270;SDS011;41132;47.162;9.470;2022-11-15T22:30:38;13.40;;;6.78;;
55270;SDS011;41132;47.162;9.470;2022-11-15T22:33:05;13.38;;;5.30;;
55270;SDS011;41132;47.162;9.470;2022-11-15T22:35:32;8.85;;;4.90;;
55270;SDS011;41132;47.162;9.470;2022-11-15T22:37:58;10.50;;;4.45;;
55270;SDS011;41132;47.162;9.470;2022-11-15T22:40:23;8.70;;;4.28;;
55270;SDS011;41132;47.162;9.470;2022-11-15T22:42:49;9.85;;;5.05;;
55270;SDS011;41132;47.162;9.470;2022-11-15T22:45:14;8.05;;;4.65;;
55270;SDS011;41132;47.162;9.470;2022-11-15T22:47:39;7.60;;;4.13;;
55270;SDS011;41132;47.162;9.470;2022-11-15T22:50:05;8.25;;;4.70;;
55270;SDS011;41132;47.162;9.470;2022-11-15T22:52:31;9.27;;;4.38;;
55270;SDS011;41132;47.162;9.470;2022-11-15T22:54:56;7.18;;;4.32;;
55270;SDS011;41132;47.162;9.470;2022-11-15T22:57:21;8.63;;;4.25;;
55270;SDS011;41132;47.162;9.470;2022-11-15T22:59:47;7.95;;;4.10;;
55270;SDS011;41132;47.162;9.470;2022-11-15T23:02:12;6.53;;;3.13;;
55270;SDS011;41132;47.162;9.470;2022-11-15T23:04:37;7.13;;;3.67;;
55270;SDS011;41132;47.162;9.470;2022-11-15T23:07:03;6.35;;;3.30;;
55270;SDS011;41132;47.162;9.470;2022-11-15T23:09:28;6.10;;;3.30;;
55270;SDS011;41132;47.162;9.470;2022-11-15T23:11:53;6.88;;;3.03;;
55270;SDS011;41132;47.162;9.470;2022-11-15T23:14:37;8.15;;;3.67;;
55270;SDS011;41132;47.162;9.470;2022-11-15T23:17:03;6.93;;;3.22;;
55270;SDS011;41132;47.162;9.470;2022-11-15T23:19:28;7.82;;;3.38;;
55270;SDS011;41132;47.162;9.470;2022-11-15T23:21:54;7.30;;;3.70;;
55270;SDS011;41132;47.162;9.470;2022-11-15T23:24:38;8.20;;;3.67;;
55270;SDS011;41132;47.162;9.470;2022-11-15T23:27:04;7.82;;;3.47;;
55270;SDS011;41132;47.162;9.470;2022-11-15T23:29:35;6.90;;;3.42;;
55270;SDS011;41132;47.162;9.470;2022-11-15T23:32:19;7.30;;;4.25;;
55270;SDS011;41132;47.162;9.470;2022-11-15T23:35:04;8.20;;;4.00;;
55270;SDS011;41132;47.162;9.470;2022-11-15T23:37:30;8.23;;;4.00;;
55270;SDS011;41132;47.162;9.470;2022-11-15T23:39:56;8.05;;;4.18;;
55270;SDS011;41132;47.162;9.470;2022-11-15T23:42:21;9.88;;;3.70;;
55270;SDS011;41132;47.162;9.470;2022-11-15T23:44:47;6.22;;;3.13;;
